createdAt,value
2018-12-05T00:00:31.138Z,2.29
2018-12-05T00:03:01.062Z,2.29
2018-12-05T00:05:30.585Z,2.25
2018-12-05T00:08:00.095Z,2.27
2018-12-05T00:10:29.646Z,2.23
2018-12-05T00:12:59.143Z,2.21
2018-12-05T00:15:28.670Z,2.18
2018-12-05T00:17:58.180Z,2.25
2018-12-05T00:20:27.729Z,2.24
2018-12-05T00:22:57.246Z,2.21
2018-12-05T00:25:26.791Z,2.29
2018-12-05T00:27:56.297Z,2.22
2018-12-05T00:30:25.815Z,2.20
2018-12-05T00:32:55.335Z,2.18
2018-12-05T00:35:24.879Z,2.18
2018-12-05T00:37:54.386Z,2.11
2018-12-05T00:40:23.938Z,2.11
2018-12-05T00:42:53.463Z,2.06
2018-12-05T00:45:23.031Z,2.06
2018-12-05T00:47:52.697Z,2.08
2018-12-05T00:50:22.234Z,2.03
2018-12-05T00:52:51.755Z,2.04
2018-12-05T00:55:21.290Z,2.00
2018-12-05T00:57:50.834Z,1.98
2018-12-05T01:00:20.526Z,1.98
2018-12-05T01:02:50.034Z,2.03
2018-12-05T01:05:19.878Z,2.00
2018-12-05T01:07:49.599Z,2.01
2018-12-05T01:10:19.782Z,2.00
2018-12-05T01:12:49.297Z,2.05
2018-12-05T01:15:18.866Z,1.98
2018-12-05T01:17:48.373Z,1.97
2018-12-05T01:20:17.925Z,1.94
2018-12-05T01:22:47.434Z,1.93
2018-12-05T01:25:16.970Z,1.88
2018-12-05T01:27:46.482Z,1.85
2018-12-05T01:30:16.024Z,1.86
2018-12-05T01:32:45.534Z,1.85
2018-12-05T01:35:15.066Z,1.91
2018-12-05T01:37:44.726Z,1.89
2018-12-05T01:40:14.286Z,1.83
2018-12-05T01:42:43.945Z,1.83
2018-12-05T01:45:13.527Z,1.79
2018-12-05T01:47:43.115Z,1.88
2018-12-05T01:50:12.802Z,1.85
2018-12-05T01:52:42.309Z,1.81
2018-12-05T01:55:12.490Z,1.87
2018-12-05T01:57:42.074Z,1.81
2018-12-05T02:00:11.726Z,1.74
2018-12-05T02:02:41.273Z,1.78
2018-12-05T02:05:10.783Z,1.73
2018-12-05T02:07:40.723Z,1.60
2018-12-05T02:10:10.294Z,1.68
2018-12-05T02:12:39.794Z,1.61
2018-12-05T02:15:09.331Z,1.59
2018-12-05T02:17:38.898Z,1.61
2018-12-05T02:20:08.575Z,1.58
2018-12-05T02:22:38.119Z,1.56
2018-12-05T02:25:07.642Z,1.56
2018-12-05T02:27:37.142Z,1.51
2018-12-05T02:30:07.287Z,1.57
2018-12-05T02:32:36.915Z,1.59
2018-12-05T02:35:06.452Z,1.61
2018-12-05T02:37:36.007Z,1.65
2018-12-05T02:40:06.992Z,1.59
2018-12-05T02:42:36.541Z,1.57
2018-12-05T02:45:06.619Z,1.59
2018-12-05T02:47:36.208Z,1.50
2018-12-05T02:50:05.894Z,1.45
2018-12-05T02:52:35.441Z,1.39
2018-12-05T02:55:05.180Z,1.39
2018-12-05T02:57:34.719Z,1.46
2018-12-05T03:00:05.606Z,1.46
2018-12-05T03:02:35.138Z,1.39
2018-12-05T03:05:05.686Z,1.40
2018-12-05T03:07:35.215Z,1.37
2018-12-05T03:10:05.419Z,1.37
2018-12-05T03:12:34.908Z,1.38
2018-12-05T03:15:04.919Z,1.35
2018-12-05T03:17:34.458Z,1.36
2018-12-05T03:20:05.364Z,1.30
2018-12-05T03:22:35.109Z,1.35
2018-12-05T03:25:05.463Z,1.33
2018-12-05T03:27:34.982Z,1.25
2018-12-05T03:30:04.856Z,1.23
2018-12-05T03:32:34.483Z,1.22
2018-12-05T03:35:04.156Z,1.24
2018-12-05T03:37:33.679Z,1.25
2018-12-05T03:40:03.342Z,1.22
2018-12-05T03:42:32.926Z,1.19
2018-12-05T03:45:02.662Z,1.29
2018-12-05T03:47:32.224Z,1.24
2018-12-05T03:50:03.056Z,1.22
2018-12-05T03:52:32.712Z,1.24
2018-12-05T03:55:02.235Z,1.19
2018-12-05T03:57:31.791Z,1.25
2018-12-05T04:00:01.350Z,1.34
2018-12-05T04:02:30.874Z,1.34
2018-12-05T04:05:00.398Z,1.31
2018-12-05T04:07:29.951Z,1.31
2018-12-05T04:09:59.447Z,1.30
2018-12-05T04:12:28.967Z,1.21
2018-12-05T04:14:58.663Z,1.28
2018-12-05T04:17:28.171Z,1.47
2018-12-05T04:19:57.674Z,1.56
2018-12-05T04:22:27.242Z,1.55
2018-12-05T04:24:56.758Z,1.59
2018-12-05T04:27:27.320Z,1.56
2018-12-05T04:29:56.826Z,1.60
2018-12-05T04:32:26.326Z,1.58
2018-12-05T04:34:55.861Z,1.57
2018-12-05T04:37:25.374Z,1.64
2018-12-05T04:39:54.878Z,1.59
2018-12-05T04:42:24.730Z,1.52
2018-12-05T04:44:54.238Z,1.47
2018-12-05T04:47:23.871Z,1.43
2018-12-05T04:49:53.429Z,1.40
2018-12-05T04:52:22.919Z,1.37
2018-12-05T04:54:52.490Z,1.35
2018-12-05T04:57:22.074Z,1.36
2018-12-05T04:59:51.579Z,1.39
2018-12-05T05:02:21.112Z,1.34
2018-12-05T05:04:50.650Z,1.35
2018-12-05T05:07:20.167Z,1.31
2018-12-05T05:09:49.779Z,1.29
2018-12-05T05:12:19.310Z,1.34
2018-12-05T05:14:48.811Z,1.29
2018-12-05T05:17:18.646Z,1.28
2018-12-05T05:19:48.454Z,1.31
2018-12-05T05:22:18.007Z,1.42
2018-12-05T05:24:47.517Z,1.41
2018-12-05T05:27:17.066Z,1.44
2018-12-05T05:29:46.586Z,1.46
2018-12-05T05:32:16.112Z,1.42
2018-12-05T05:34:45.622Z,1.48
2018-12-05T05:37:15.290Z,1.47
2018-12-05T05:39:44.801Z,1.53
2018-12-05T05:42:15.362Z,1.59
2018-12-05T05:44:44.858Z,1.51
2018-12-05T05:47:14.405Z,1.48
2018-12-05T05:49:43.918Z,1.47
2018-12-05T05:52:13.447Z,1.34
2018-12-05T05:54:42.949Z,1.35
2018-12-05T05:57:12.467Z,1.44
2018-12-05T05:59:42.003Z,1.36
2018-12-05T06:02:11.551Z,1.32
2018-12-05T06:04:41.075Z,1.31
2018-12-05T06:07:10.631Z,1.31
2018-12-05T06:09:40.185Z,1.33
2018-12-05T06:12:09.724Z,1.34
2018-12-05T06:14:39.657Z,1.31
2018-12-05T06:17:09.215Z,1.32
2018-12-05T06:19:38.727Z,1.37
2018-12-05T06:22:08.232Z,1.37
2018-12-05T06:24:37.770Z,1.33
2018-12-05T06:27:07.302Z,1.40
2018-12-05T06:29:36.787Z,1.45
2018-12-05T06:32:06.454Z,1.40
2018-12-05T06:34:35.951Z,1.44
2018-12-05T06:37:05.510Z,1.44
2018-12-05T06:39:35.018Z,1.45
2018-12-05T06:42:04.560Z,1.39
2018-12-05T06:44:34.069Z,1.37
2018-12-05T06:47:03.622Z,1.36
2018-12-05T06:49:33.117Z,1.40
2018-12-05T06:52:02.644Z,1.40
2018-12-05T06:54:32.152Z,1.40
2018-12-05T06:57:01.686Z,1.38
2018-12-05T06:59:31.203Z,1.33
2018-12-05T07:02:00.746Z,1.44
2018-12-05T07:04:30.255Z,1.43
2018-12-05T07:07:00.089Z,1.49
2018-12-05T07:09:29.586Z,1.51
2018-12-05T07:11:59.134Z,1.57
2018-12-05T07:14:28.634Z,1.60
2018-12-05T07:16:58.162Z,1.58
2018-12-05T07:19:27.657Z,1.58
2018-12-05T07:21:57.182Z,1.60
2018-12-05T07:24:26.666Z,1.65
2018-12-05T07:26:56.192Z,1.62
2018-12-05T07:29:25.693Z,1.63
2018-12-05T07:31:55.210Z,1.62
2018-12-05T07:34:24.703Z,1.70
2018-12-05T07:36:54.226Z,1.73
2018-12-05T07:39:23.731Z,1.75
2018-12-05T07:41:53.250Z,1.74
2018-12-05T07:44:22.738Z,1.67
2018-12-05T07:46:52.247Z,1.68
2018-12-05T07:49:21.754Z,1.73
2018-12-05T07:51:51.294Z,1.75
2018-12-05T07:54:20.799Z,1.74
2018-12-05T07:56:50.712Z,1.73
2018-12-05T07:59:20.218Z,1.81
2018-12-05T08:01:49.746Z,1.77
2018-12-05T08:04:19.274Z,1.76
2018-12-05T08:06:48.814Z,1.79
2018-12-05T08:09:18.391Z,1.84
2018-12-05T08:11:47.934Z,1.84
2018-12-05T08:14:17.442Z,1.86
2018-12-05T08:16:46.983Z,1.81
2018-12-05T08:19:16.492Z,1.86
2018-12-05T08:21:46.030Z,1.89
2018-12-05T08:24:15.959Z,1.92
2018-12-05T08:26:45.494Z,1.99
2018-12-05T08:29:15.074Z,2.05
2018-12-05T08:31:44.633Z,2.06
2018-12-05T08:34:14.146Z,2.05
2018-12-05T08:36:43.651Z,2.07
2018-12-05T08:39:13.206Z,2.10
2018-12-05T08:41:42.727Z,2.14
2018-12-05T08:44:12.945Z,2.27
2018-12-05T08:46:42.931Z,2.34
2018-12-05T08:49:12.475Z,2.34
2018-12-05T08:51:41.978Z,2.38
2018-12-05T08:54:11.510Z,2.45
2018-12-05T08:56:41.036Z,2.50
2018-12-05T08:59:10.583Z,2.57
2018-12-05T09:01:40.074Z,2.66
2018-12-05T09:04:09.590Z,2.71
2018-12-05T09:06:39.103Z,2.70
2018-12-05T09:09:08.768Z,2.83
2018-12-05T09:11:38.264Z,2.83
2018-12-05T09:14:07.790Z,2.73
2018-12-05T09:16:37.297Z,2.87
2018-12-05T09:19:06.866Z,2.95
2018-12-05T09:21:36.335Z,3.02
2018-12-05T09:24:05.886Z,3.06
2018-12-05T09:26:35.374Z,3.14
2018-12-05T09:29:04.922Z,3.18
2018-12-05T09:31:34.407Z,3.21
2018-12-05T09:34:03.932Z,3.28
2018-12-05T09:36:33.431Z,3.28
2018-12-05T09:39:03.082Z,3.32
2018-12-05T09:41:32.670Z,3.34
2018-12-05T09:44:02.187Z,3.44
2018-12-05T09:46:31.670Z,3.33
2018-12-05T09:49:01.196Z,3.47
2018-12-05T09:51:30.923Z,3.48
2018-12-05T09:54:00.650Z,3.55
2018-12-05T09:56:30.456Z,3.46
2018-12-05T09:59:00.055Z,3.54
2018-12-05T10:01:29.560Z,3.54
2018-12-05T10:03:59.094Z,3.69
2018-12-05T10:06:28.606Z,3.74
2018-12-05T10:08:58.139Z,3.83
2018-12-05T10:11:27.650Z,3.85
2018-12-05T10:13:57.166Z,3.92
2018-12-05T10:16:26.707Z,4.13
2018-12-05T10:18:56.254Z,4.22
2018-12-05T10:21:25.762Z,4.37
2018-12-05T10:23:55.591Z,4.43
2018-12-05T10:26:25.078Z,4.40
2018-12-05T10:28:54.610Z,4.44
2018-12-05T10:31:24.102Z,4.58
2018-12-05T10:33:53.614Z,4.58
2018-12-05T10:36:23.085Z,4.64
2018-12-05T10:38:52.570Z,4.65
2018-12-05T10:41:22.093Z,4.72
2018-12-05T10:43:51.742Z,4.86
2018-12-05T10:46:21.235Z,4.93
2018-12-05T10:48:50.746Z,5.07
2018-12-05T10:51:20.242Z,5.08
2018-12-05T10:53:49.752Z,5.15
2018-12-05T10:56:19.371Z,5.25
2018-12-05T10:58:48.906Z,5.33
2018-12-05T11:01:23.790Z,5.34
2018-12-05T11:03:53.382Z,5.39
2018-12-05T11:06:28.114Z,5.41
2018-12-05T11:09:03.017Z,5.38
2018-12-05T11:11:37.730Z,5.54
2018-12-05T11:14:12.579Z,5.71
2018-12-05T11:16:50.430Z,5.71
2018-12-05T11:19:25.120Z,5.50
2018-12-05T11:21:59.775Z,5.60
2018-12-05T11:24:33.278Z,5.67
2018-12-05T11:27:02.786Z,5.64
2018-12-05T11:29:32.366Z,5.83
2018-12-05T11:32:02.066Z,5.92
2018-12-05T11:34:31.546Z,5.81
2018-12-05T11:37:01.222Z,5.98
2018-12-05T11:39:30.694Z,6.00
2018-12-05T11:42:00.199Z,6.08
2018-12-05T11:44:29.680Z,6.18
2018-12-05T11:46:59.218Z,6.26
2018-12-05T11:49:28.712Z,6.37
2018-12-05T11:51:58.236Z,6.37
2018-12-05T11:54:27.856Z,6.16
2018-12-05T11:56:57.362Z,6.23
2018-12-05T11:59:27.106Z,6.27
2018-12-05T12:01:56.662Z,6.33
2018-12-05T12:04:26.160Z,6.24
2018-12-05T12:06:55.694Z,6.26
2018-12-05T12:09:25.179Z,6.33
2018-12-05T12:11:54.694Z,6.19
2018-12-05T12:14:24.199Z,6.05
2018-12-05T12:16:53.985Z,6.03
2018-12-05T12:19:23.474Z,5.94
2018-12-05T12:21:53.006Z,5.89
2018-12-05T12:24:23.371Z,5.97
2018-12-05T12:26:52.894Z,5.97
2018-12-05T12:29:22.486Z,5.89
2018-12-05T12:31:52.330Z,5.84
2018-12-05T12:34:22.015Z,5.71
2018-12-05T12:36:51.565Z,5.70
2018-12-05T12:39:21.651Z,5.76
2018-12-05T12:41:51.194Z,5.75
2018-12-05T12:44:20.782Z,5.71
2018-12-05T12:46:50.294Z,5.72
2018-12-05T12:49:19.796Z,5.81
2018-12-05T12:51:49.318Z,5.87
2018-12-05T12:54:18.838Z,5.83
2018-12-05T12:56:48.359Z,5.95
2018-12-05T12:59:17.886Z,6.04
2018-12-05T13:01:47.807Z,5.95
2018-12-05T13:04:17.320Z,6.12
2018-12-05T13:06:46.853Z,6.09
2018-12-05T13:09:16.434Z,6.06
2018-12-05T13:11:45.947Z,6.01
2018-12-05T13:14:15.459Z,6.00
2018-12-05T13:16:44.970Z,6.03
2018-12-05T13:19:14.443Z,5.96
2018-12-05T13:21:43.975Z,5.95
2018-12-05T13:24:13.486Z,5.92
2018-12-05T13:26:42.994Z,5.92
2018-12-05T13:29:12.506Z,5.89
2018-12-05T13:31:42.014Z,5.99
2018-12-05T13:34:11.538Z,5.95
2018-12-05T13:36:41.069Z,5.86
2018-12-05T13:39:10.595Z,5.88
2018-12-05T13:41:40.107Z,5.80
2018-12-05T13:44:16.027Z,5.74
2018-12-05T13:46:45.562Z,5.70
2018-12-05T13:49:15.191Z,5.64
2018-12-05T13:51:44.833Z,5.59
2018-12-05T13:54:14.524Z,5.59
2018-12-05T13:56:44.027Z,5.62
2018-12-05T13:59:13.574Z,5.50
2018-12-05T14:01:43.179Z,5.57
2018-12-05T14:04:12.674Z,5.52
2018-12-05T14:06:42.222Z,5.49
2018-12-05T14:09:11.722Z,5.51
2018-12-05T14:11:41.266Z,5.48
2018-12-05T14:14:10.760Z,5.42
2018-12-05T14:16:40.286Z,5.49
2018-12-05T14:19:09.790Z,5.42
2018-12-05T14:21:39.333Z,5.31
2018-12-05T14:24:09.180Z,5.28
2018-12-05T14:26:38.967Z,5.35
2018-12-05T14:29:08.765Z,5.29
2018-12-05T14:31:38.651Z,5.22
2018-12-05T14:34:08.238Z,5.24
2018-12-05T14:36:38.116Z,5.12
2018-12-05T14:39:08.366Z,5.07
2018-12-05T14:41:38.214Z,5.09
2018-12-05T14:44:08.487Z,5.08
2018-12-05T14:46:38.410Z,5.06
2018-12-05T14:49:08.092Z,5.02
2018-12-05T14:51:37.906Z,4.99
2018-12-05T14:54:08.062Z,4.95
2018-12-05T14:56:38.562Z,4.90
2018-12-05T14:59:08.517Z,4.92
2018-12-05T15:01:38.492Z,4.94
2018-12-05T15:04:08.289Z,4.93
2018-12-05T15:06:38.676Z,4.85
2018-12-05T15:09:08.962Z,4.81
2018-12-05T15:11:38.946Z,4.73
2018-12-05T15:14:08.813Z,4.69
2018-12-05T15:16:38.724Z,4.72
2018-12-05T15:19:08.515Z,4.69
2018-12-05T15:21:38.280Z,4.70
2018-12-05T15:24:09.647Z,4.72
2018-12-05T15:26:39.662Z,4.67
2018-12-05T15:29:09.461Z,4.63
2018-12-05T15:31:39.083Z,4.65
2018-12-05T15:34:08.699Z,4.61
2018-12-05T15:36:38.552Z,4.58
2018-12-05T15:39:09.038Z,4.58
2018-12-05T15:41:38.738Z,4.55
2018-12-05T15:44:08.258Z,4.54
2018-12-05T15:46:38.211Z,4.59
2018-12-05T15:49:07.851Z,4.69
2018-12-05T15:51:37.559Z,4.67
2018-12-05T15:54:08.094Z,4.68
2018-12-05T15:56:38.116Z,4.70
2018-12-05T15:59:08.019Z,4.70
2018-12-05T16:01:37.759Z,4.69
2018-12-05T16:04:07.514Z,4.68
2018-12-05T16:06:37.502Z,4.70
2018-12-05T16:09:08.209Z,4.70
2018-12-05T16:11:38.146Z,4.63
2018-12-05T16:14:08.064Z,4.77
2018-12-05T16:16:37.998Z,4.69
2018-12-05T16:19:07.687Z,4.80
2018-12-05T16:21:37.208Z,4.80
2018-12-05T16:24:06.815Z,4.74
2018-12-05T16:26:36.710Z,4.81
2018-12-05T16:29:06.572Z,4.83
2018-12-05T16:31:36.497Z,4.89
2018-12-05T16:34:06.370Z,4.90
2018-12-05T16:36:36.307Z,5.03
2018-12-05T16:39:08.049Z,4.93
2018-12-05T16:41:37.993Z,4.91
2018-12-05T16:44:12.796Z,4.93
2018-12-05T16:46:39.771Z,4.95
2018-12-05T16:49:09.617Z,4.95
2018-12-05T16:51:39.526Z,4.96
2018-12-05T16:54:09.390Z,4.94
2018-12-05T16:56:40.286Z,4.93
2018-12-05T16:59:10.163Z,4.91
2018-12-05T17:01:40.115Z,4.87
2018-12-05T17:04:09.977Z,4.78
2018-12-05T17:06:39.789Z,4.87
2018-12-05T17:09:09.592Z,4.89
2018-12-05T17:11:39.466Z,4.89
2018-12-05T17:14:09.332Z,4.95
2018-12-05T17:16:39.207Z,4.94
2018-12-05T17:19:08.738Z,4.98
2018-12-05T17:21:38.255Z,5.05
2018-12-05T17:24:07.747Z,4.99
2018-12-05T17:26:37.278Z,5.07
2018-12-05T17:29:06.762Z,5.02
2018-12-05T17:31:36.273Z,5.03
2018-12-05T17:34:05.754Z,4.97
2018-12-05T17:36:35.291Z,4.94
2018-12-05T17:39:07.506Z,4.98
2018-12-05T17:41:37.054Z,4.92
2018-12-05T17:44:06.658Z,4.99
2018-12-05T17:46:36.186Z,4.94
2018-12-05T17:49:05.708Z,4.93
2018-12-05T17:51:35.198Z,4.88
2018-12-05T17:54:04.848Z,4.94
2018-12-05T17:56:35.142Z,4.92
2018-12-05T17:59:04.931Z,4.98
2018-12-05T18:01:34.431Z,4.93
2018-12-05T18:04:03.954Z,4.96
2018-12-05T18:06:33.446Z,4.92
2018-12-05T18:09:03.094Z,4.91
2018-12-05T18:11:32.575Z,4.93
2018-12-05T18:14:02.098Z,4.99
2018-12-05T18:16:31.595Z,4.97
2018-12-05T18:19:01.103Z,4.98
2018-12-05T18:21:30.610Z,5.03
2018-12-05T18:24:00.114Z,5.04
2018-12-05T18:26:29.606Z,5.09
2018-12-05T18:28:59.199Z,5.04
2018-12-05T18:31:28.809Z,5.11
2018-12-05T18:33:58.287Z,5.14
2018-12-05T18:36:27.826Z,5.11
2018-12-05T18:38:57.320Z,5.11
2018-12-05T18:41:26.811Z,5.13
2018-12-05T18:43:56.346Z,5.13
2018-12-05T18:46:25.866Z,5.22
2018-12-05T18:48:55.367Z,5.22
2018-12-05T18:51:24.925Z,5.21
2018-12-05T18:53:54.450Z,5.19
2018-12-05T18:56:23.982Z,5.26
2018-12-05T18:58:53.615Z,5.18
2018-12-05T19:01:23.186Z,5.22
2018-12-05T19:03:52.743Z,5.29
2018-12-05T19:06:23.024Z,5.38
2018-12-05T19:08:53.013Z,5.29
2018-12-05T19:11:22.677Z,5.30
2018-12-05T19:13:57.663Z,5.22
2018-12-05T19:16:27.194Z,5.24
2018-12-05T19:18:56.710Z,5.24
2018-12-05T19:21:26.248Z,5.27
2018-12-05T19:23:55.844Z,5.22
2018-12-05T19:26:25.414Z,5.22
2018-12-05T19:28:55.017Z,5.20
2018-12-05T19:31:24.570Z,5.20
2018-12-05T19:33:54.167Z,5.19
2018-12-05T19:36:23.724Z,5.14
2018-12-05T19:38:53.375Z,5.10
2018-12-05T19:41:22.956Z,5.09
2018-12-05T19:43:52.464Z,5.19
2018-12-05T19:46:22.281Z,5.22
2018-12-05T19:48:52.206Z,5.13
2018-12-05T19:51:21.747Z,5.16
2018-12-05T19:53:51.297Z,5.13
2018-12-05T19:56:20.838Z,5.11
2018-12-05T19:58:50.382Z,5.11
2018-12-05T20:01:19.980Z,5.20
2018-12-05T20:03:49.529Z,5.12
2018-12-05T20:06:19.294Z,5.13
2018-12-05T20:08:48.874Z,5.14
2018-12-05T20:11:18.395Z,5.13
2018-12-05T20:13:48.370Z,5.11
2018-12-05T20:16:19.035Z,5.08
2018-12-05T20:18:48.593Z,5.13
2018-12-05T20:21:18.125Z,5.10
2018-12-05T20:23:47.688Z,5.03
2018-12-05T20:26:17.294Z,5.07
2018-12-05T20:28:46.817Z,5.09
2018-12-05T20:31:16.358Z,4.90
2018-12-05T20:33:45.995Z,4.80
2018-12-05T20:36:15.522Z,4.80
2018-12-05T20:38:45.089Z,4.80
2018-12-05T20:41:14.695Z,4.77
2018-12-05T20:43:44.287Z,4.83
2018-12-05T20:46:13.914Z,4.81
2018-12-05T20:48:43.501Z,4.80
2018-12-05T20:51:13.150Z,4.80
2018-12-05T20:53:42.695Z,4.78
2018-12-05T20:56:12.250Z,4.76
2018-12-05T20:58:41.850Z,4.73
2018-12-05T21:01:46.955Z,4.74
2018-12-05T21:04:16.543Z,4.71
2018-12-05T21:06:46.095Z,4.82
2018-12-05T21:09:15.696Z,4.78
2018-12-05T21:11:45.915Z,4.78
2018-12-05T21:14:15.458Z,4.80
2018-12-05T21:16:45.091Z,4.76
2018-12-05T21:19:14.646Z,4.78
2018-12-05T21:21:44.270Z,4.81
2018-12-05T21:24:13.786Z,4.86
2018-12-05T21:26:43.403Z,4.89
2018-12-05T21:29:12.918Z,4.87
2018-12-05T21:31:42.510Z,4.78
2018-12-05T21:34:12.155Z,4.88
2018-12-05T21:36:41.681Z,4.81
2018-12-05T21:39:11.215Z,4.88
2018-12-05T21:41:40.819Z,4.81
2018-12-05T21:44:10.353Z,4.81
2018-12-05T21:46:39.845Z,4.75
2018-12-05T21:49:09.406Z,4.78
2018-12-05T21:51:38.925Z,4.70
2018-12-05T21:54:08.423Z,4.83
2018-12-05T21:56:37.970Z,4.85
2018-12-05T21:59:07.482Z,4.82
2018-12-05T22:01:36.951Z,4.79
2018-12-05T22:04:06.483Z,4.73
2018-12-05T22:06:35.954Z,4.66
2018-12-05T22:09:09.250Z,4.65
2018-12-05T22:11:38.737Z,4.65
2018-12-05T22:14:08.240Z,4.69
2018-12-05T22:16:37.762Z,4.66
2018-12-05T22:19:07.262Z,4.63
2018-12-05T22:21:36.742Z,4.68
2018-12-05T22:24:06.518Z,4.65
2018-12-05T22:26:36.014Z,4.73
2018-12-05T22:29:05.522Z,4.77
2018-12-05T22:31:35.643Z,4.62
2018-12-05T22:34:05.151Z,4.52
2018-12-05T22:36:34.642Z,4.57
2018-12-05T22:39:06.935Z,4.56
2018-12-05T22:41:36.476Z,4.49
2018-12-05T22:44:06.466Z,4.52
2018-12-05T22:46:36.132Z,4.47
2018-12-05T22:49:05.792Z,4.43
2018-12-05T22:51:35.551Z,4.41
2018-12-05T22:54:05.068Z,4.40
2018-12-05T22:56:34.582Z,4.42
2018-12-05T22:59:04.146Z,4.39
2018-12-05T23:01:34.023Z,4.41
2018-12-05T23:04:03.538Z,4.33
2018-12-05T23:06:33.122Z,4.37
2018-12-05T23:09:02.760Z,4.37
2018-12-05T23:11:32.573Z,4.41
2018-12-05T23:14:02.118Z,4.47
2018-12-05T23:16:31.620Z,4.47
2018-12-05T23:19:01.102Z,4.43
2018-12-05T23:21:30.931Z,4.39
2018-12-05T23:24:00.425Z,4.40
2018-12-05T23:26:29.938Z,4.41
2018-12-05T23:28:59.513Z,4.39
2018-12-05T23:31:29.151Z,4.41
2018-12-05T23:33:58.647Z,4.44
2018-12-05T23:36:28.190Z,4.47
2018-12-05T23:38:57.739Z,4.45
2018-12-05T23:41:27.251Z,4.42
2018-12-05T23:43:56.807Z,4.44
2018-12-05T23:46:26.322Z,4.42
2018-12-05T23:48:55.814Z,4.44
2018-12-05T23:51:25.822Z,4.44
2018-12-05T23:53:55.324Z,4.42
2018-12-05T23:56:24.831Z,4.43
2018-12-05T23:58:54.398Z,4.46
